createdAt,value
2019-02-15T00:00:25.125Z,1029.55
2019-02-15T00:01:25.093Z,1029.56
2019-02-15T00:02:25.088Z,1029.56
2019-02-15T00:03:25.084Z,1029.56
2019-02-15T00:04:25.070Z,1029.55
2019-02-15T00:05:25.066Z,1029.60
2019-02-15T00:06:25.042Z,1029.56
2019-02-15T00:07:25.030Z,1029.58
2019-02-15T00:08:25.019Z,1029.54
2019-02-15T00:09:25.021Z,1029.56
2019-02-15T00:10:25.007Z,1029.59
2019-02-15T00:11:24.981Z,1029.60
2019-02-15T00:12:25.953Z,1029.58
2019-02-15T00:13:24.959Z,1029.57
2019-02-15T00:14:24.956Z,1029.56
2019-02-15T00:15:24.965Z,1029.52
2019-02-15T00:16:24.934Z,1029.50
2019-02-15T00:17:24.920Z,1029.55
2019-02-15T00:18:24.916Z,1029.57
2019-02-15T00:19:24.897Z,1029.56
2019-02-15T00:20:24.909Z,1029.56
2019-02-15T00:21:24.891Z,1029.54
2019-02-15T00:22:24.860Z,1029.58
2019-02-15T00:23:24.851Z,1029.56
2019-02-15T00:24:24.845Z,1029.53
2019-02-15T00:25:24.829Z,1029.53
2019-02-15T00:26:24.824Z,1029.58
2019-02-15T00:27:24.807Z,1029.57
2019-02-15T00:28:24.789Z,1029.55
2019-02-15T00:29:24.786Z,1029.56
2019-02-15T00:30:24.768Z,1029.57
2019-02-15T00:31:24.771Z,1029.53
2019-02-15T00:32:24.748Z,1029.54
2019-02-15T00:33:24.733Z,1029.55
2019-02-15T00:34:24.726Z,1029.57
2019-02-15T00:35:24.715Z,1029.58
2019-02-15T00:36:24.707Z,1029.60
2019-02-15T00:37:24.689Z,1029.61
2019-02-15T00:38:24.691Z,1029.59
2019-02-15T00:39:24.662Z,1029.57
2019-02-15T00:40:24.655Z,1029.56
2019-02-15T00:41:24.654Z,1029.64
2019-02-15T00:42:24.639Z,1029.59
2019-02-15T00:43:24.626Z,1029.62
2019-02-15T00:44:24.614Z,1029.64
2019-02-15T00:45:24.597Z,1029.61
2019-02-15T00:46:24.608Z,1029.65
2019-02-15T00:47:24.571Z,1029.62
2019-02-15T00:48:24.558Z,1029.61
2019-02-15T00:49:24.564Z,1029.62
2019-02-15T00:50:24.535Z,1029.60
2019-02-15T00:51:24.540Z,1029.58
2019-02-15T00:52:32.357Z,1029.65
2019-02-15T00:53:24.840Z,1029.60
2019-02-15T00:54:24.830Z,1029.63
2019-02-15T00:55:24.803Z,1029.58
2019-02-15T00:56:24.854Z,1029.58
2019-02-15T00:57:24.578Z,1029.56
2019-02-15T00:58:24.753Z,1029.57
2019-02-15T00:59:24.718Z,1029.52
2019-02-15T01:00:24.792Z,1029.53
2019-02-15T01:01:24.788Z,1029.53
2019-02-15T01:02:24.695Z,1029.49
2019-02-15T01:03:24.769Z,1029.51
2019-02-15T01:04:24.696Z,1029.54
2019-02-15T01:05:24.771Z,1029.54
2019-02-15T01:06:24.673Z,1029.52
2019-02-15T01:07:24.388Z,1029.53
2019-02-15T01:08:24.640Z,1029.48
2019-02-15T01:09:24.705Z,1029.55
2019-02-15T01:10:24.642Z,1029.49
2019-02-15T01:11:24.669Z,1029.49
2019-02-15T01:12:24.633Z,1029.50
2019-02-15T01:13:30.955Z,1029.52
2019-02-15T01:14:25.599Z,1029.47
2019-02-15T01:15:24.559Z,1029.49
2019-02-15T01:16:24.605Z,1029.49
2019-02-15T01:17:24.559Z,1029.47
2019-02-15T01:18:24.262Z,1029.47
2019-02-15T01:19:24.527Z,1029.44
2019-02-15T01:20:24.518Z,1029.47
2019-02-15T01:21:24.520Z,1029.49
2019-02-15T01:22:24.500Z,1029.49
2019-02-15T01:23:24.460Z,1029.47
2019-02-15T01:24:24.500Z,1029.47
2019-02-15T01:25:24.467Z,1029.43
2019-02-15T01:26:24.425Z,1029.45
2019-02-15T01:27:24.165Z,1029.47
2019-02-15T01:28:24.134Z,1029.44
2019-02-15T01:29:24.132Z,1029.46
2019-02-15T01:30:24.085Z,1029.43
2019-02-15T01:31:24.105Z,1029.43
2019-02-15T01:32:24.112Z,1029.41
2019-02-15T01:33:24.113Z,1029.42
2019-02-15T01:34:24.039Z,1029.41
2019-02-15T01:35:24.033Z,1029.42
2019-02-15T01:36:24.088Z,1029.42
2019-02-15T01:37:24.024Z,1029.44
2019-02-15T01:38:24.312Z,1029.40
2019-02-15T01:39:24.307Z,1029.39
2019-02-15T01:40:23.997Z,1029.32
2019-02-15T01:41:24.307Z,1029.34
2019-02-15T01:42:24.245Z,1029.30
2019-02-15T01:43:24.306Z,1029.31
2019-02-15T01:44:24.256Z,1029.27
2019-02-15T01:45:23.944Z,1029.26
2019-02-15T01:46:24.262Z,1029.27
2019-02-15T01:47:24.193Z,1029.25
2019-02-15T01:48:24.287Z,1029.23
2019-02-15T01:49:24.227Z,1029.23
2019-02-15T01:50:24.136Z,1029.24
2019-02-15T01:51:24.213Z,1029.23
2019-02-15T01:52:24.183Z,1029.19
2019-02-15T01:53:24.127Z,1029.18
2019-02-15T01:54:24.151Z,1029.17
2019-02-15T01:55:24.135Z,1029.16
2019-02-15T01:56:24.118Z,1029.16
2019-02-15T01:57:24.021Z,1029.15
2019-02-15T01:58:23.792Z,1029.14
2019-02-15T01:59:24.087Z,1029.18
2019-02-15T02:00:24.088Z,1029.11
2019-02-15T02:01:24.014Z,1029.12
2019-02-15T02:02:24.048Z,1029.13
2019-02-15T02:03:24.065Z,1029.10
2019-02-15T02:04:24.037Z,1029.11
2019-02-15T02:05:24.015Z,1029.11
2019-02-15T02:06:24.013Z,1029.12
2019-02-15T02:07:24.005Z,1029.09
2019-02-15T02:08:23.991Z,1029.07
2019-02-15T02:09:23.993Z,1029.10
2019-02-15T02:10:23.960Z,1029.09
2019-02-15T02:11:23.880Z,1029.07
2019-02-15T02:12:23.629Z,1029.11
2019-02-15T02:13:23.892Z,1029.09
2019-02-15T02:14:23.892Z,1029.08
2019-02-15T02:15:23.943Z,1029.06
2019-02-15T02:16:23.844Z,1029.07
2019-02-15T02:17:23.907Z,1029.08
2019-02-15T02:18:23.883Z,1029.01
2019-02-15T02:19:23.856Z,1029.02
2019-02-15T02:20:23.838Z,1029.01
2019-02-15T02:21:23.848Z,1029.01
2019-02-15T02:22:23.817Z,1028.98
2019-02-15T02:23:23.837Z,1028.98
2019-02-15T02:24:23.863Z,1028.97
2019-02-15T02:25:23.811Z,1028.97
2019-02-15T02:26:23.832Z,1028.95
2019-02-15T02:27:23.767Z,1028.95
2019-02-15T02:28:23.446Z,1028.95
2019-02-15T02:29:23.720Z,1028.96
2019-02-15T02:30:23.744Z,1028.95
2019-02-15T02:31:23.717Z,1028.91
2019-02-15T02:32:23.714Z,1028.95
2019-02-15T02:33:23.679Z,1028.91
2019-02-15T02:34:23.681Z,1028.99
2019-02-15T02:35:23.706Z,1028.96
2019-02-15T02:36:23.639Z,1028.98
2019-02-15T02:37:23.627Z,1028.98
2019-02-15T02:38:23.665Z,1028.97
2019-02-15T02:39:23.694Z,1028.96
2019-02-15T02:40:23.667Z,1028.97
2019-02-15T02:41:23.299Z,1028.96
2019-02-15T02:42:23.599Z,1028.99
2019-02-15T02:43:23.572Z,1028.94
2019-02-15T02:44:23.547Z,1028.97
2019-02-15T02:45:23.556Z,1028.95
2019-02-15T02:46:23.485Z,1028.97
2019-02-15T02:47:23.551Z,1028.91
2019-02-15T02:48:23.519Z,1028.91
2019-02-15T02:49:23.498Z,1028.90
2019-02-15T02:50:23.466Z,1028.90
2019-02-15T02:51:23.502Z,1028.91
2019-02-15T02:52:23.494Z,1028.91
2019-02-15T02:53:23.497Z,1028.90
2019-02-15T02:54:23.470Z,1028.92
2019-02-15T02:55:23.523Z,1028.88
2019-02-15T02:56:23.434Z,1028.89
2019-02-15T02:57:23.366Z,1028.87
2019-02-15T02:58:23.376Z,1028.88
2019-02-15T02:59:23.427Z,1028.88
2019-02-15T03:00:32.914Z,1028.89
2019-02-15T03:01:24.382Z,1028.93
2019-02-15T03:02:23.064Z,1028.93
2019-02-15T03:03:23.363Z,1028.90
2019-02-15T03:04:23.392Z,1028.84
2019-02-15T03:05:23.353Z,1028.86
2019-02-15T03:06:23.319Z,1028.86
2019-02-15T03:07:23.373Z,1028.85
2019-02-15T03:08:23.328Z,1028.87
2019-02-15T03:09:23.307Z,1028.87
2019-02-15T03:10:23.325Z,1028.85
2019-02-15T03:11:23.244Z,1028.84
2019-02-15T03:12:23.270Z,1028.81
2019-02-15T03:13:23.239Z,1028.79
2019-02-15T03:14:23.221Z,1028.81
2019-02-15T03:15:22.953Z,1028.85
2019-02-15T03:16:23.232Z,1028.80
2019-02-15T03:17:23.176Z,1028.81
2019-02-15T03:18:23.177Z,1028.79
2019-02-15T03:19:23.171Z,1028.82
2019-02-15T03:20:30.816Z,1028.80
2019-02-15T03:21:24.165Z,1028.79
2019-02-15T03:22:23.130Z,1028.77
2019-02-15T03:23:23.108Z,1028.80
2019-02-15T03:24:23.117Z,1028.83
2019-02-15T03:25:23.096Z,1028.85
2019-02-15T03:26:23.123Z,1028.90
2019-02-15T03:27:23.099Z,1028.83
2019-02-15T03:28:23.038Z,1028.90
2019-02-15T03:29:23.041Z,1028.93
2019-02-15T03:30:23.041Z,1028.93
2019-02-15T03:31:23.032Z,1028.91
2019-02-15T03:32:22.988Z,1028.95
2019-02-15T03:33:22.702Z,1028.89
2019-02-15T03:34:23.006Z,1028.94
2019-02-15T03:35:22.965Z,1028.98
2019-02-15T03:36:23.003Z,1029.03
2019-02-15T03:37:22.976Z,1029.00
2019-02-15T03:38:22.995Z,1029.02
2019-02-15T03:39:22.928Z,1029.05
2019-02-15T03:40:22.937Z,1029.06
2019-02-15T03:41:22.957Z,1029.05
2019-02-15T03:42:22.927Z,1029.09
2019-02-15T03:43:22.819Z,1029.05
2019-02-15T03:44:22.961Z,1029.08
2019-02-15T03:45:22.801Z,1029.09
2019-02-15T03:46:22.870Z,1029.08
2019-02-15T03:47:22.877Z,1029.05
2019-02-15T03:48:22.792Z,1029.08
2019-02-15T03:49:22.850Z,1029.10
2019-02-15T03:50:22.847Z,1029.13
2019-02-15T03:51:22.817Z,1029.08
2019-02-15T03:52:22.792Z,1029.10
2019-02-15T03:53:22.509Z,1029.12
2019-02-15T03:54:22.715Z,1029.07
2019-02-15T03:55:22.745Z,1029.06
2019-02-15T03:56:22.754Z,1029.07
2019-02-15T03:57:22.731Z,1029.05
2019-02-15T03:58:22.716Z,1029.06
2019-02-15T03:59:22.692Z,1029.06
2019-02-15T04:00:22.716Z,1029.03
2019-02-15T04:01:22.685Z,1029.02
2019-02-15T04:02:22.748Z,1029.01
2019-02-15T04:03:22.682Z,1029.01
2019-02-15T04:04:22.634Z,1029.04
2019-02-15T04:05:22.643Z,1029.01
2019-02-15T04:06:22.637Z,1029.03
2019-02-15T04:07:22.598Z,1029.03
2019-02-15T04:08:22.600Z,1029.03
2019-02-15T04:09:22.630Z,1029.00
2019-02-15T04:10:22.604Z,1028.99
2019-02-15T04:11:22.847Z,1029.02
2019-02-15T04:12:22.570Z,1029.03
2019-02-15T04:13:22.573Z,1029.01
2019-02-15T04:14:32.282Z,1029.03
2019-02-15T04:15:23.523Z,1029.03
2019-02-15T04:16:22.789Z,1029.06
2019-02-15T04:17:22.505Z,1029.05
2019-02-15T04:18:22.576Z,1029.10
2019-02-15T04:19:22.479Z,1029.10
2019-02-15T04:20:22.457Z,1029.06
2019-02-15T04:21:22.436Z,1029.09
2019-02-15T04:22:22.451Z,1029.07
2019-02-15T04:23:22.374Z,1029.09
2019-02-15T04:24:22.417Z,1029.10
2019-02-15T04:25:22.370Z,1029.07
2019-02-15T04:26:22.429Z,1029.12
2019-02-15T04:27:22.098Z,1029.14
2019-02-15T04:28:22.383Z,1029.12
2019-02-15T04:29:22.396Z,1029.14
2019-02-15T04:30:22.363Z,1029.14
2019-02-15T04:31:22.352Z,1029.13
2019-02-15T04:32:22.350Z,1029.14
2019-02-15T04:33:22.310Z,1029.05
2019-02-15T04:34:22.250Z,1029.08
2019-02-15T04:35:22.358Z,1029.03
2019-02-15T04:36:22.347Z,1029.04
2019-02-15T04:37:22.268Z,1029.03
2019-02-15T04:38:22.256Z,1029.03
2019-02-15T04:39:22.294Z,1029.05
2019-02-15T04:40:22.226Z,1029.07
2019-02-15T04:41:22.227Z,1029.01
2019-02-15T04:42:22.244Z,1029.04
2019-02-15T04:43:22.230Z,1029.07
2019-02-15T04:44:22.209Z,1029.06
2019-02-15T04:45:21.882Z,1029.03
2019-02-15T04:46:22.202Z,1029.06
2019-02-15T04:47:22.177Z,1029.12
2019-02-15T04:48:22.213Z,1029.08
2019-02-15T04:49:22.125Z,1029.06
2019-02-15T04:50:22.149Z,1029.10
2019-02-15T04:51:22.060Z,1029.08
2019-02-15T04:52:22.124Z,1029.10
2019-02-15T04:53:22.113Z,1029.09
2019-02-15T04:54:22.048Z,1029.06
2019-02-15T04:55:22.079Z,1029.06
2019-02-15T04:56:22.100Z,1029.07
2019-02-15T04:57:22.069Z,1029.13
2019-02-15T04:58:21.985Z,1029.12
2019-02-15T04:59:22.047Z,1029.08
2019-02-15T05:00:22.023Z,1029.16
2019-02-15T05:01:22.030Z,1029.18
2019-02-15T05:02:21.982Z,1029.15
2019-02-15T05:03:21.957Z,1029.16
2019-02-15T05:04:21.664Z,1029.16
2019-02-15T05:05:21.931Z,1029.17
2019-02-15T05:06:21.943Z,1029.17
2019-02-15T05:07:21.966Z,1029.17
2019-02-15T05:08:21.962Z,1029.16
2019-02-15T05:09:23.798Z,1029.19
2019-02-15T05:10:21.929Z,1029.15
2019-02-15T05:11:21.932Z,1029.18
2019-02-15T05:12:21.821Z,1029.18
2019-02-15T05:13:21.861Z,1029.19
2019-02-15T05:14:21.843Z,1029.17
2019-02-15T05:15:21.849Z,1029.18
2019-02-15T05:16:21.830Z,1029.12
2019-02-15T05:17:21.838Z,1029.13
2019-02-15T05:18:21.792Z,1029.10
2019-02-15T05:19:21.808Z,1029.12
2019-02-15T05:20:21.798Z,1029.10
2019-02-15T05:21:21.761Z,1029.08
2019-02-15T05:22:21.754Z,1029.11
2019-02-15T05:23:21.465Z,1029.10
2019-02-15T05:24:21.748Z,1029.12
2019-02-15T05:25:21.714Z,1029.10
2019-02-15T05:26:21.715Z,1029.09
2019-02-15T05:27:21.860Z,1029.11
2019-02-15T05:28:21.743Z,1029.11
2019-02-15T05:29:21.642Z,1029.08
2019-02-15T05:30:21.637Z,1029.09
2019-02-15T05:31:21.601Z,1029.10
2019-02-15T05:32:21.728Z,1029.06
2019-02-15T05:33:21.624Z,1029.07
2019-02-15T05:34:21.602Z,1029.04
2019-02-15T05:35:21.618Z,1029.03
2019-02-15T05:36:21.814Z,1029.05
2019-02-15T05:37:21.600Z,1029.02
2019-02-15T05:38:21.661Z,1029.02
2019-02-15T05:39:21.610Z,1029.04
2019-02-15T05:40:21.547Z,1029.05
2019-02-15T05:41:21.594Z,1029.06
2019-02-15T05:42:21.242Z,1029.01
2019-02-15T05:43:21.545Z,1029.03
2019-02-15T05:44:21.511Z,1029.05
2019-02-15T05:45:21.478Z,1029.04
2019-02-15T05:46:21.507Z,1029.08
2019-02-15T05:47:21.499Z,1029.10
2019-02-15T05:48:21.498Z,1029.13
2019-02-15T05:49:21.465Z,1029.16
2019-02-15T05:50:21.473Z,1029.18
2019-02-15T05:51:21.448Z,1029.23
2019-02-15T05:52:21.388Z,1029.20
2019-02-15T05:53:21.453Z,1029.19
2019-02-15T05:54:21.402Z,1029.20
2019-02-15T05:55:21.363Z,1029.17
2019-02-15T05:56:21.585Z,1029.18
2019-02-15T05:57:21.380Z,1029.16
2019-02-15T05:58:21.379Z,1029.18
2019-02-15T05:59:21.347Z,1029.16
2019-02-15T06:00:21.338Z,1029.12
2019-02-15T06:01:21.300Z,1029.14
2019-02-15T06:02:21.306Z,1029.15
2019-02-15T06:03:21.287Z,1029.14
2019-02-15T06:04:21.239Z,1029.20
2019-02-15T06:05:21.274Z,1029.14
2019-02-15T06:06:21.263Z,1029.15
2019-02-15T06:07:21.269Z,1029.18
2019-02-15T06:08:21.274Z,1029.17
2019-02-15T06:09:21.239Z,1029.14
2019-02-15T06:10:20.927Z,1029.14
2019-02-15T06:11:21.215Z,1029.17
2019-02-15T06:12:21.191Z,1029.17
2019-02-15T06:13:21.181Z,1029.12
2019-02-15T06:14:21.172Z,1029.17
2019-02-15T06:15:21.158Z,1029.14
2019-02-15T06:16:21.117Z,1029.11
2019-02-15T06:17:21.109Z,1029.13
2019-02-15T06:18:21.079Z,1029.16
2019-02-15T06:19:21.137Z,1029.16
2019-02-15T06:20:21.130Z,1029.17
2019-02-15T06:21:21.084Z,1029.15
2019-02-15T06:22:21.096Z,1029.19
2019-02-15T06:23:21.056Z,1029.22
2019-02-15T06:24:21.028Z,1029.20
2019-02-15T06:25:21.041Z,1029.20
2019-02-15T06:26:21.033Z,1029.21
2019-02-15T06:27:21.017Z,1029.24
2019-02-15T06:28:21.051Z,1029.21
2019-02-15T06:29:20.950Z,1029.15
2019-02-15T06:30:20.969Z,1029.22
2019-02-15T06:31:20.956Z,1029.20
2019-02-15T06:32:20.940Z,1029.17
2019-02-15T06:33:20.975Z,1029.20
2019-02-15T06:34:20.954Z,1029.21
2019-02-15T06:35:20.954Z,1029.23
2019-02-15T06:36:20.941Z,1029.26
2019-02-15T06:37:20.857Z,1029.28
2019-02-15T06:38:20.914Z,1029.24
2019-02-15T06:39:20.897Z,1029.28
2019-02-15T06:40:20.556Z,1029.28
2019-02-15T06:41:20.543Z,1029.28
2019-02-15T06:42:20.527Z,1029.25
2019-02-15T06:43:20.549Z,1029.27
2019-02-15T06:44:20.509Z,1029.28
2019-02-15T06:45:24.763Z,1029.26
2019-02-15T06:46:20.496Z,1029.26
2019-02-15T06:47:20.474Z,1029.26
2019-02-15T06:48:20.460Z,1029.25
2019-02-15T06:49:20.457Z,1029.26
2019-02-15T06:50:20.444Z,1029.31
2019-02-15T06:51:20.429Z,1029.33
2019-02-15T06:52:20.450Z,1029.37
2019-02-15T06:53:20.413Z,1029.32
2019-02-15T06:54:20.407Z,1029.29
2019-02-15T06:55:20.439Z,1029.36
2019-02-15T06:56:20.376Z,1029.34
2019-02-15T06:57:20.367Z,1029.34
2019-02-15T06:58:20.347Z,1029.31
2019-02-15T06:59:20.363Z,1029.31
2019-02-15T07:00:20.325Z,1029.34
2019-02-15T07:01:20.318Z,1029.30
2019-02-15T07:02:20.311Z,1029.33
2019-02-15T07:03:20.307Z,1029.35
2019-02-15T07:04:20.302Z,1029.39
2019-02-15T07:05:20.281Z,1029.36
2019-02-15T07:06:20.265Z,1029.36
2019-02-15T07:07:20.271Z,1029.42
2019-02-15T07:08:20.243Z,1029.41
2019-02-15T07:09:20.244Z,1029.44
2019-02-15T07:10:20.219Z,1029.43
2019-02-15T07:11:20.209Z,1029.43
2019-02-15T07:12:20.196Z,1029.47
2019-02-15T07:13:20.182Z,1029.48
2019-02-15T07:14:20.930Z,1029.48
2019-02-15T07:15:20.157Z,1029.48
2019-02-15T07:16:20.146Z,1029.46
2019-02-15T07:17:20.140Z,1029.49
2019-02-15T07:18:20.123Z,1029.45
2019-02-15T07:19:27.511Z,1029.49
2019-02-15T07:20:27.421Z,1029.47
2019-02-15T07:21:27.403Z,1029.49
2019-02-15T07:22:27.474Z,1029.46
2019-02-15T07:23:20.371Z,1029.43
2019-02-15T07:24:28.683Z,1029.47
2019-02-15T07:25:20.410Z,1029.44
2019-02-15T07:26:20.331Z,1029.44
2019-02-15T07:27:20.323Z,1029.45
2019-02-15T07:28:20.120Z,1029.46
2019-02-15T07:29:27.384Z,1029.50
2019-02-15T07:30:20.208Z,1029.49
2019-02-15T07:31:20.029Z,1029.49
2019-02-15T07:33:30.639Z,1029.54
2019-02-15T07:34:30.598Z,1029.44
2019-02-15T07:35:37.617Z,1029.49
2019-02-15T07:36:37.842Z,1029.45
2019-02-15T07:37:30.530Z,1029.48
2019-02-15T07:38:30.530Z,1029.52
2019-02-15T07:39:30.535Z,1029.51
2019-02-15T07:40:30.404Z,1029.56
2019-02-15T07:41:30.499Z,1029.55
2019-02-15T07:42:30.211Z,1029.59
2019-02-15T07:43:37.483Z,1029.56
2019-02-15T07:44:38.783Z,1029.55
2019-02-15T07:45:30.437Z,1029.59
2019-02-15T07:46:30.274Z,1029.58
2019-02-15T07:47:30.397Z,1029.54
2019-02-15T07:48:30.397Z,1029.56
2019-02-15T07:49:30.200Z,1029.55
2019-02-15T07:50:38.463Z,1029.56
2019-02-15T07:52:20.686Z,1029.47
2019-02-15T07:53:27.645Z,1029.51
2019-02-15T07:54:27.826Z,1029.54
2019-02-15T07:55:27.635Z,1029.55
2019-02-15T07:56:29.834Z,1029.52
2019-02-15T07:59:45.111Z,1029.50
2019-02-15T08:00:45.112Z,1029.51
2019-02-15T08:01:52.087Z,1029.50
2019-02-15T08:03:55.557Z,1029.49
2019-02-15T08:06:04.577Z,1029.45
2019-02-15T08:07:12.295Z,1029.44
2019-02-15T08:08:11.501Z,1029.46
2019-02-15T08:09:11.554Z,1029.39
2019-02-15T08:10:12.098Z,1029.37
2019-02-15T08:11:11.551Z,1029.38
2019-02-15T08:12:13.130Z,1029.42
2019-02-15T08:13:12.394Z,1029.40
2019-02-15T08:14:14.767Z,1029.46
2019-02-15T08:15:12.924Z,1029.41
2019-02-15T08:16:11.457Z,1029.44
2019-02-15T08:17:12.445Z,1029.42
2019-02-15T08:18:04.322Z,1029.47
2019-02-15T08:19:12.684Z,1029.41
2019-02-15T08:20:04.546Z,1029.42
2019-02-15T08:21:04.175Z,1029.45
2019-02-15T08:22:04.182Z,1029.44
2019-02-15T08:23:13.010Z,1029.49
2019-02-15T08:24:12.915Z,1029.47
2019-02-15T08:26:15.195Z,1029.49
2019-02-15T08:27:14.897Z,1029.52
2019-02-15T08:29:53.319Z,1029.60
2019-02-15T08:30:53.295Z,1029.59
2019-02-15T08:31:53.295Z,1029.57
2019-02-15T08:32:53.290Z,1029.53
2019-02-15T08:33:53.626Z,1029.55
2019-02-15T08:34:53.209Z,1029.56
2019-02-15T08:35:53.192Z,1029.55
2019-02-15T08:36:53.020Z,1029.58
2019-02-15T08:37:53.831Z,1029.59
2019-02-15T08:38:53.168Z,1029.59
2019-02-15T08:39:53.165Z,1029.62
2019-02-15T08:40:52.886Z,1029.59
2019-02-15T08:42:01.265Z,1029.61
2019-02-15T08:42:55.850Z,1029.58
2019-02-15T08:43:52.917Z,1029.60
2019-02-15T08:44:52.826Z,1029.57
2019-02-15T08:46:00.521Z,1029.62
2019-02-15T08:46:53.799Z,1029.60
2019-02-15T08:47:52.789Z,1029.65
2019-02-15T08:49:00.097Z,1029.62
2019-02-15T08:49:53.107Z,1029.59
2019-02-15T08:50:53.016Z,1029.60
2019-02-15T08:51:53.068Z,1029.61
2019-02-15T08:52:54.986Z,1029.61
2019-02-15T08:53:53.035Z,1029.62
2019-02-15T08:54:52.922Z,1029.62
2019-02-15T08:55:52.879Z,1029.65
2019-02-15T08:56:52.721Z,1029.64
2019-02-15T08:57:53.035Z,1029.66
2019-02-15T08:58:52.706Z,1029.61
2019-02-15T08:59:52.664Z,1029.63
2019-02-15T09:00:52.660Z,1029.66
2019-02-15T09:01:52.647Z,1029.63
2019-02-15T09:02:52.636Z,1029.70
2019-02-15T09:03:52.625Z,1029.70
2019-02-15T09:04:52.600Z,1029.71
2019-02-15T09:05:52.606Z,1029.70
2019-02-15T09:06:52.571Z,1029.71
2019-02-15T09:07:52.560Z,1029.73
2019-02-15T09:08:52.565Z,1029.74
2019-02-15T09:09:52.572Z,1029.76
2019-02-15T09:10:52.540Z,1029.78
2019-02-15T09:11:52.542Z,1029.72
2019-02-15T09:12:52.513Z,1029.73
2019-02-15T09:13:52.497Z,1029.78
2019-02-15T09:14:52.490Z,1029.79
2019-02-15T09:15:52.538Z,1029.75
2019-02-15T09:16:52.473Z,1029.78
2019-02-15T09:17:52.475Z,1029.79
2019-02-15T09:18:52.443Z,1029.74
2019-02-15T09:19:52.439Z,1029.77
2019-02-15T09:20:52.436Z,1029.79
2019-02-15T09:21:53.338Z,1029.82
2019-02-15T09:22:52.414Z,1029.85
2019-02-15T09:23:52.433Z,1029.78
2019-02-15T09:24:52.376Z,1029.82
2019-02-15T09:25:52.377Z,1029.81
2019-02-15T09:26:52.368Z,1029.77
2019-02-15T09:27:52.348Z,1029.79
2019-02-15T09:28:52.352Z,1029.77
2019-02-15T09:29:52.325Z,1029.76
2019-02-15T09:30:52.326Z,1029.79
2019-02-15T09:31:52.291Z,1029.81
2019-02-15T09:32:52.288Z,1029.74
2019-02-15T09:33:52.836Z,1029.75
2019-02-15T09:34:52.262Z,1029.74
2019-02-15T09:35:52.339Z,1029.77
2019-02-15T09:36:52.247Z,1029.77
2019-02-15T09:37:52.219Z,1029.75
2019-02-15T09:38:52.897Z,1029.74
2019-02-15T09:39:52.206Z,1029.77
2019-02-15T09:40:52.194Z,1029.73
2019-02-15T09:41:52.189Z,1029.72
2019-02-15T09:42:52.214Z,1029.76
2019-02-15T09:43:52.158Z,1029.80
2019-02-15T09:44:52.158Z,1029.75
2019-02-15T09:45:52.141Z,1029.75
2019-02-15T09:46:59.510Z,1029.77
2019-02-15T09:47:52.463Z,1029.73
2019-02-15T09:48:52.346Z,1029.75
2019-02-15T09:49:52.494Z,1029.74
2019-02-15T09:50:52.397Z,1029.67
2019-02-15T09:51:52.524Z,1029.69
2019-02-15T09:52:52.438Z,1029.69
2019-02-15T09:53:52.364Z,1029.69
2019-02-15T09:54:52.421Z,1029.70
2019-02-15T09:55:52.355Z,1029.73
2019-02-15T09:56:52.306Z,1029.69
2019-02-15T09:57:52.167Z,1029.71
2019-02-15T09:58:52.275Z,1029.66
2019-02-15T09:59:52.306Z,1029.67
2019-02-15T10:00:52.158Z,1029.68
2019-02-15T10:01:52.115Z,1029.61
2019-02-15T10:02:51.982Z,1029.62
2019-02-15T10:03:52.236Z,1029.59
2019-02-15T10:04:52.255Z,1029.58
2019-02-15T10:05:51.930Z,1029.55
2019-02-15T10:06:51.943Z,1029.48
2019-02-15T10:07:51.914Z,1029.50
2019-02-15T10:08:51.880Z,1029.49
2019-02-15T10:09:51.889Z,1029.51
2019-02-15T10:10:51.851Z,1029.45
2019-02-15T10:11:51.938Z,1029.49
2019-02-15T10:12:51.847Z,1029.49
2019-02-15T10:13:51.829Z,1029.53
2019-02-15T10:14:51.876Z,1029.52
2019-02-15T10:15:51.855Z,1029.52
2019-02-15T10:16:51.872Z,1029.58
2019-02-15T10:17:51.786Z,1029.55
2019-02-15T10:18:51.791Z,1029.56
2019-02-15T10:19:51.756Z,1029.53
2019-02-15T10:20:51.807Z,1029.51
2019-02-15T10:21:51.747Z,1029.48
2019-02-15T10:22:51.802Z,1029.51
2019-02-15T10:23:51.743Z,1029.49
2019-02-15T10:24:51.733Z,1029.50
2019-02-15T10:25:51.697Z,1029.51
2019-02-15T10:26:51.705Z,1029.51
2019-02-15T10:27:51.659Z,1029.52
2019-02-15T10:28:51.667Z,1029.46
2019-02-15T10:30:02.237Z,1029.48
2019-02-15T10:30:51.981Z,1029.46
2019-02-15T10:31:51.956Z,1029.40
2019-02-15T10:32:51.929Z,1029.45
2019-02-15T10:33:51.901Z,1029.43
2019-02-15T10:34:51.773Z,1029.42
2019-02-15T10:35:51.628Z,1029.41
2019-02-15T10:36:51.944Z,1029.41
2019-02-15T10:37:51.602Z,1029.41
2019-02-15T10:38:51.561Z,1029.40
2019-02-15T10:39:51.534Z,1029.38
2019-02-15T10:40:51.543Z,1029.37
2019-02-15T10:41:51.530Z,1029.37
2019-02-15T10:42:51.495Z,1029.35
2019-02-15T10:43:51.481Z,1029.38
2019-02-15T10:44:51.471Z,1029.37
2019-02-15T10:45:51.473Z,1029.38
2019-02-15T10:46:51.489Z,1029.34
2019-02-15T10:47:51.451Z,1029.35
2019-02-15T10:48:51.442Z,1029.34
2019-02-15T10:49:51.460Z,1029.35
2019-02-15T10:50:51.418Z,1029.35
2019-02-15T10:51:51.431Z,1029.36
2019-02-15T10:52:51.402Z,1029.35
2019-02-15T10:53:51.371Z,1029.26
2019-02-15T10:54:51.370Z,1029.25
2019-02-15T10:55:51.350Z,1029.25
2019-02-15T10:56:51.340Z,1029.23
2019-02-15T10:57:52.347Z,1029.22
2019-02-15T10:58:51.311Z,1029.16
2019-02-15T10:59:51.310Z,1029.20
2019-02-15T11:00:51.887Z,1029.16
2019-02-15T11:01:51.287Z,1029.17
2019-02-15T11:02:51.279Z,1029.21
2019-02-15T11:03:51.289Z,1029.25
2019-02-15T11:04:51.242Z,1029.23
2019-02-15T11:05:51.241Z,1029.25
2019-02-15T11:06:51.218Z,1029.17
2019-02-15T11:07:51.218Z,1029.19
2019-02-15T11:08:51.206Z,1029.21
2019-02-15T11:09:51.207Z,1029.24
2019-02-15T11:10:51.202Z,1029.15
2019-02-15T11:11:51.185Z,1029.16
2019-02-15T11:12:51.183Z,1029.17
2019-02-15T11:13:51.153Z,1029.11
2019-02-15T11:14:51.130Z,1029.08
2019-02-15T11:15:51.116Z,1029.01
2019-02-15T11:16:51.111Z,1029.04
2019-02-15T11:17:51.128Z,1029.07
2019-02-15T11:18:51.102Z,1029.05
2019-02-15T11:19:51.106Z,1029.06
2019-02-15T11:20:51.063Z,1029.00
2019-02-15T11:21:51.063Z,1029.05
2019-02-15T11:22:51.061Z,1029.01
2019-02-15T11:23:51.027Z,1029.00
2019-02-15T11:24:51.064Z,1028.98
2019-02-15T11:25:51.023Z,1028.96
2019-02-15T11:26:50.994Z,1028.95
2019-02-15T11:27:51.049Z,1028.95
2019-02-15T11:28:51.002Z,1028.94
2019-02-15T11:29:51.035Z,1028.91
2019-02-15T11:30:50.970Z,1028.92
2019-02-15T11:31:50.987Z,1028.88
2019-02-15T11:32:50.949Z,1028.94
2019-02-15T11:33:51.172Z,1028.89
2019-02-15T11:34:59.268Z,1028.85
2019-02-15T11:35:51.160Z,1028.87
2019-02-15T11:36:51.210Z,1028.88
2019-02-15T11:37:51.755Z,1028.88
2019-02-15T11:38:51.517Z,1028.84
2019-02-15T11:39:50.884Z,1028.83
2019-02-15T11:40:59.211Z,1028.84
2019-02-15T11:41:51.107Z,1028.76
2019-02-15T11:42:51.074Z,1028.81
2019-02-15T11:43:58.204Z,1028.78
2019-02-15T11:44:51.062Z,1028.76
2019-02-15T11:45:58.137Z,1028.77
2019-02-15T11:46:56.767Z,1028.79
2019-02-15T11:47:51.120Z,1028.82
2019-02-15T11:48:50.788Z,1028.77
2019-02-15T11:49:50.728Z,1028.79
2019-02-15T11:50:50.733Z,1028.76
2019-02-15T11:51:50.789Z,1028.71
2019-02-15T11:52:51.505Z,1028.80
2019-02-15T11:53:50.694Z,1028.83
2019-02-15T11:54:50.675Z,1028.78
2019-02-15T11:55:50.682Z,1028.79
2019-02-15T11:59:12.305Z,1028.77
2019-02-15T12:02:28.905Z,1028.79
2019-02-15T12:03:20.887Z,1028.77
2019-02-15T12:04:20.543Z,1028.70
2019-02-15T12:05:21.181Z,1028.76
2019-02-15T12:06:19.660Z,1028.79
2019-02-15T12:07:20.229Z,1028.79
2019-02-15T12:08:19.644Z,1028.75
2019-02-15T12:09:19.617Z,1028.75
2019-02-15T12:10:19.593Z,1028.74
2019-02-15T12:11:19.620Z,1028.74
2019-02-15T12:12:19.686Z,1028.73
2019-02-15T12:13:19.592Z,1028.74
2019-02-15T12:14:20.252Z,1028.71
2019-02-15T12:15:19.582Z,1028.74
2019-02-15T12:16:19.566Z,1028.73
2019-02-15T12:17:20.285Z,1028.74
2019-02-15T12:18:19.564Z,1028.69
2019-02-15T12:19:19.536Z,1028.71